createdAt,value
2023-02-13T00:01:43.832Z,0.60
2023-02-13T00:04:11.212Z,2.40
2023-02-13T00:06:38.008Z,2.90
2023-02-13T00:09:06.471Z,3.50
2023-02-13T00:11:34.134Z,2.10
2023-02-13T00:14:00.935Z,3.90
2023-02-13T00:16:27.713Z,2.20
2023-02-13T00:18:54.528Z,3.40
2023-02-13T00:21:21.329Z,3.10
2023-02-13T00:23:48.240Z,-0.10
2023-02-13T00:26:15.990Z,2.30
2023-02-13T00:28:45.144Z,2.50
2023-02-13T00:31:16.395Z,2.50
2023-02-13T00:33:43.743Z,2.40
2023-02-13T00:36:15.400Z,2.30
2023-02-13T00:38:42.778Z,-0.10
2023-02-13T00:41:10.045Z,2.70
2023-02-13T00:43:37.159Z,2.60
2023-02-13T00:46:04.556Z,1.70
2023-02-13T00:48:32.832Z,-0.20
2023-02-13T00:51:00.255Z,-0.10
2023-02-13T00:53:29.481Z,1.60
2023-02-13T00:55:56.300Z,1.40
2023-02-13T00:58:23.738Z,1.20
2023-02-13T01:00:52.234Z,2.80
2023-02-13T01:03:19.603Z,1.20
2023-02-13T01:05:46.844Z,2.80
2023-02-13T01:08:14.818Z,2.90
2023-02-13T01:10:41.941Z,2.90
2023-02-13T01:13:09.426Z,-0.30
2023-02-13T01:15:36.465Z,0.20
2023-02-13T01:18:03.743Z,2.80
2023-02-13T01:20:30.631Z,2.90
2023-02-13T01:22:57.530Z,2.50
2023-02-13T01:25:24.906Z,2.50
2023-02-13T01:27:51.823Z,-0.40
2023-02-13T01:30:19.453Z,2.60
2023-02-13T01:32:46.971Z,-0.60
2023-02-13T01:35:14.693Z,2.60
2023-02-13T01:37:41.831Z,2.30
2023-02-13T01:40:10.831Z,2.40
2023-02-13T01:42:37.692Z,-0.80
2023-02-13T01:45:05.797Z,-0.80
2023-02-13T01:47:32.662Z,-0.40
2023-02-13T01:50:08.665Z,0.80
2023-02-13T01:52:36.259Z,-1.10
2023-02-13T01:55:03.440Z,0.70
2023-02-13T01:57:31.220Z,1.80
2023-02-13T02:00:01.479Z,-1.00
2023-02-13T02:02:29.018Z,-1.00
2023-02-13T02:04:59.931Z,2.20
2023-02-13T02:07:28.628Z,1.80
2023-02-13T02:10:05.307Z,-1.00
2023-02-13T02:12:36.333Z,-0.80
2023-02-13T02:15:06.876Z,0.90
2023-02-13T02:17:34.004Z,-0.80
2023-02-13T02:20:08.977Z,-0.90
2023-02-13T02:22:51.730Z,-0.60
2023-02-13T02:25:31.969Z,-0.70
2023-02-13T02:28:04.555Z,-0.70
2023-02-13T02:30:47.542Z,-0.70
2023-02-13T02:33:51.816Z,-0.60
2023-02-13T02:36:18.720Z,-0.60
2023-02-13T02:38:51.911Z,2.40
2023-02-13T02:45:15.807Z,-0.50
2023-02-13T02:48:01.967Z,-0.40
2023-02-13T02:50:28.841Z,1.30
2023-02-13T02:52:59.836Z,-0.30
2023-02-13T02:55:43.431Z,2.20
2023-02-13T02:58:32.780Z,-0.20
2023-02-13T03:01:19.732Z,2.10
2023-02-13T03:04:06.347Z,2.80
2023-02-13T03:06:38.669Z,1.20
2023-02-13T03:09:25.730Z,-0.20
2023-02-13T03:12:13.436Z,2.30
2023-02-13T03:14:40.352Z,-0.20
2023-02-13T03:17:29.858Z,1.90
2023-02-13T03:20:21.928Z,3.00
2023-02-13T03:23:07.221Z,2.40
2023-02-13T03:25:38.685Z,-0.10
2023-02-13T03:28:43.212Z,1.40
2023-02-13T03:31:20.931Z,-0.10
2023-02-13T03:34:02.373Z,0.00
2023-02-13T03:36:53.919Z,-0.20
2023-02-13T03:39:26.771Z,-0.20
2023-02-13T03:41:57.352Z,-0.20
2023-02-13T03:44:47.072Z,0.60
2023-02-13T03:47:14.194Z,-0.30
2023-02-13T03:50:03.718Z,2.80
2023-02-13T03:52:32.858Z,1.90
2023-02-13T03:55:27.736Z,2.70
2023-02-13T03:58:15.418Z,-0.30
2023-02-13T04:00:49.076Z,1.40
2023-02-13T04:03:22.104Z,-0.40
2023-02-13T04:05:51.785Z,1.50
2023-02-13T04:08:18.687Z,-0.50
2023-02-13T04:10:50.566Z,2.00
2023-02-13T04:13:37.656Z,2.60
2023-02-13T04:16:11.741Z,2.20
2023-02-13T04:18:38.886Z,-0.30
2023-02-13T04:21:06.807Z,1.90
2023-02-13T04:23:35.996Z,-0.30
2023-02-13T04:26:05.524Z,2.70
2023-02-13T04:28:32.451Z,2.70
2023-02-13T04:30:59.710Z,2.00
2023-02-13T04:33:26.879Z,2.50
2023-02-13T04:35:53.723Z,-0.20
2023-02-13T04:38:20.594Z,-0.40
2023-02-13T04:40:47.439Z,2.50
2023-02-13T04:43:14.299Z,2.90
2023-02-13T04:45:41.184Z,1.50
2023-02-13T04:48:09.092Z,-0.30
2023-02-13T04:50:35.924Z,2.30
2023-02-13T04:53:02.817Z,2.80
2023-02-13T04:55:29.696Z,2.40
2023-02-13T04:57:56.888Z,2.60
2023-02-13T05:00:24.842Z,0.60
2023-02-13T05:02:51.776Z,2.80
2023-02-13T05:05:19.231Z,-0.30
2023-02-13T05:07:46.112Z,2.90
2023-02-13T05:10:13.397Z,-0.30
2023-02-13T05:12:40.232Z,0.30
2023-02-13T05:15:07.487Z,-0.20
2023-02-13T05:17:34.364Z,-0.10
2023-02-13T05:20:01.258Z,-0.20
2023-02-13T05:22:46.713Z,2.70
2023-02-13T05:25:13.608Z,0.30
2023-02-13T05:27:40.459Z,2.50
2023-02-13T05:30:07.607Z,-0.30
2023-02-13T05:32:34.451Z,-0.10
2023-02-13T05:35:04.222Z,-0.20
2023-02-13T05:37:31.603Z,2.30
2023-02-13T05:39:58.504Z,-0.20
2023-02-13T05:42:25.416Z,2.10
2023-02-13T05:45:24.171Z,2.20
2023-02-13T05:47:51.125Z,-0.10
2023-02-13T05:50:18.029Z,2.90
2023-02-13T05:52:44.957Z,-0.10
2023-02-13T05:55:11.917Z,2.20
2023-02-13T05:57:38.807Z,2.00
2023-02-13T06:00:06.024Z,2.20
2023-02-13T06:02:32.842Z,-0.10
2023-02-13T06:04:59.628Z,2.50
2023-02-13T06:07:26.381Z,-0.10
2023-02-13T06:09:53.294Z,3.00
2023-02-13T06:12:20.159Z,-0.10
2023-02-13T06:14:47.011Z,2.30
2023-02-13T06:17:13.894Z,3.20
2023-02-13T06:19:40.732Z,2.40
2023-02-13T06:22:07.579Z,-0.20
2023-02-13T06:24:34.474Z,2.70
2023-02-13T06:27:01.358Z,-0.20
2023-02-13T06:29:28.216Z,2.90
2023-02-13T06:31:55.107Z,-0.20
2023-02-13T06:34:22.047Z,2.50
2023-02-13T06:36:49.615Z,2.20
2023-02-13T06:39:16.484Z,2.90
2023-02-13T06:41:43.347Z,1.00
2023-02-13T06:44:10.182Z,-0.10
2023-02-13T06:46:37.144Z,2.70
2023-02-13T06:49:04.008Z,2.50
2023-02-13T06:51:30.865Z,-0.20
2023-02-13T06:53:57.738Z,1.20
2023-02-13T06:56:26.516Z,-0.30
2023-02-13T06:58:53.458Z,1.00
2023-02-13T07:01:21.704Z,3.00
2023-02-13T07:03:48.868Z,2.80
2023-02-13T07:06:19.378Z,2.70
2023-02-13T07:08:46.532Z,-0.10
2023-02-13T07:11:17.390Z,1.00
2023-02-13T07:13:44.227Z,-0.20
2023-02-13T07:16:11.153Z,2.80
2023-02-13T07:18:38.672Z,-0.30
2023-02-13T07:21:05.696Z,0.20
2023-02-13T07:23:32.556Z,-0.20
2023-02-13T07:26:00.116Z,0.60
2023-02-13T07:28:27.433Z,3.10
2023-02-13T07:30:56.433Z,2.30
2023-02-13T07:33:23.888Z,-0.20
2023-02-13T07:35:51.588Z,2.20
2023-02-13T07:38:18.738Z,3.10
2023-02-13T07:40:45.953Z,2.60
2023-02-13T07:43:13.294Z,3.00
2023-02-13T07:45:40.189Z,2.30
2023-02-13T07:48:07.068Z,2.90
2023-02-13T07:50:33.898Z,2.10
2023-02-13T07:53:01.666Z,2.60
2023-02-13T07:55:29.959Z,2.00
2023-02-13T07:57:56.931Z,3.20
2023-02-13T08:00:23.847Z,1.60
2023-02-13T08:02:50.683Z,2.40
2023-02-13T08:05:17.651Z,3.10
2023-02-13T08:07:44.481Z,0.10
2023-02-13T08:10:30.919Z,0.00
2023-02-13T08:12:58.911Z,0.20
2023-02-13T08:15:26.142Z,0.20
2023-02-13T08:17:53.001Z,2.30
2023-02-13T08:20:19.977Z,0.00
2023-02-13T08:22:46.826Z,0.10
2023-02-13T08:25:13.855Z,3.00
2023-02-13T08:27:40.831Z,2.80
2023-02-13T08:30:08.220Z,3.30
2023-02-13T08:32:44.924Z,0.30
2023-02-13T08:35:18.919Z,3.20
2023-02-13T08:37:47.318Z,2.90
2023-02-13T08:40:14.834Z,3.00
2023-02-13T08:42:41.964Z,0.60
2023-02-13T08:45:10.602Z,2.80
2023-02-13T08:47:37.991Z,0.80
2023-02-13T08:50:05.109Z,4.00
2023-02-13T08:52:32.187Z,0.90
2023-02-13T08:54:59.148Z,2.90
2023-02-13T08:57:26.027Z,2.50
2023-02-13T08:59:52.887Z,1.30
2023-02-13T09:02:19.825Z,4.30
2023-02-13T09:04:46.810Z,1.40
2023-02-13T09:07:13.687Z,3.60
2023-02-13T09:09:40.487Z,-1.10
2023-02-13T09:12:07.402Z,4.40
2023-02-13T09:14:34.726Z,1.80
2023-02-13T09:17:03.193Z,4.70
2023-02-13T09:19:30.205Z,4.50
2023-02-13T09:21:57.019Z,4.90
2023-02-13T09:24:23.925Z,4.30
2023-02-13T09:26:50.722Z,5.30
2023-02-13T09:29:17.621Z,4.90
2023-02-13T09:31:44.740Z,5.60
2023-02-13T09:34:11.686Z,3.50
2023-02-13T09:36:38.550Z,6.10
2023-02-13T09:39:05.431Z,3.80
2023-02-13T09:41:52.217Z,4.90
2023-02-13T09:44:34.500Z,4.20
2023-02-13T09:47:01.373Z,2.30
2023-02-13T09:49:30.536Z,7.10
2023-02-13T09:51:57.764Z,5.20
2023-02-13T09:54:26.758Z,7.10
2023-02-13T09:57:02.184Z,5.00
2023-02-13T09:59:32.043Z,5.10
2023-02-13T10:02:01.294Z,5.30
2023-02-13T10:04:28.107Z,8.20
2023-02-13T10:07:00.304Z,5.40
2023-02-13T10:09:30.946Z,7.20
2023-02-13T10:12:09.902Z,5.60
2023-02-13T10:14:48.708Z,5.70
2023-02-13T10:17:21.913Z,4.10
2023-02-13T10:19:57.061Z,8.30
2023-02-13T10:22:28.530Z,6.00
2023-02-13T10:24:57.981Z,9.00
2023-02-13T10:27:45.071Z,6.20
2023-02-13T10:30:16.337Z,9.00
2023-02-13T10:33:22.034Z,6.30
2023-02-13T10:35:48.865Z,6.30
2023-02-13T10:38:17.804Z,6.50
2023-02-13T10:40:52.180Z,9.30
2023-02-13T10:43:20.550Z,6.80
2023-02-13T10:46:02.542Z,9.00
2023-02-13T10:48:36.166Z,7.10
2023-02-13T10:51:02.955Z,9.90
2023-02-13T10:53:56.217Z,7.30
2023-02-13T10:56:39.191Z,7.30
2023-02-13T10:59:24.931Z,7.50
2023-02-13T11:01:56.526Z,7.60
2023-02-13T11:04:23.822Z,7.70
2023-02-13T11:07:03.574Z,9.20
2023-02-13T11:09:34.009Z,7.90
2023-02-13T11:12:20.860Z,10.10
2023-02-13T11:14:55.819Z,8.10
2023-02-13T11:17:23.566Z,8.10
2023-02-13T11:19:51.778Z,8.20
2023-02-13T11:22:44.863Z,10.70
2023-02-13T11:25:17.831Z,8.60
2023-02-13T11:27:45.227Z,8.30
2023-02-13T11:30:32.206Z,8.40
2023-02-13T11:33:04.199Z,8.40
2023-02-13T11:35:32.813Z,8.70
2023-02-13T11:38:22.909Z,9.50
2023-02-13T11:40:51.628Z,8.60
2023-02-13T11:43:20.153Z,8.70
2023-02-13T11:45:47.248Z,8.90
2023-02-13T11:48:21.590Z,8.80
2023-02-13T11:50:52.401Z,9.00
2023-02-13T11:53:21.619Z,8.90
2023-02-13T11:59:24.640Z,9.00
2023-02-13T12:02:16.915Z,9.00
2023-02-13T12:04:43.853Z,9.10
2023-02-13T12:07:14.823Z,9.20
2023-02-13T12:09:42.069Z,10.50
2023-02-13T12:12:16.208Z,9.40
2023-02-13T12:14:44.910Z,10.20
2023-02-13T12:17:29.088Z,9.70
2023-02-13T12:19:57.589Z,9.70
2023-02-13T12:22:45.288Z,9.80
2023-02-13T12:25:18.628Z,9.70
2023-02-13T12:31:35.937Z,9.70
2023-02-13T12:34:05.933Z,9.70
2023-02-13T12:36:38.807Z,9.80
2023-02-13T12:39:05.674Z,9.70
2023-02-13T12:41:47.235Z,9.80
2023-02-13T12:44:23.447Z,9.80
2023-02-13T12:47:05.652Z,10.00
2023-02-13T12:49:55.817Z,9.90
2023-02-13T12:52:22.624Z,9.90
2023-02-13T12:54:58.572Z,10.90
2023-02-13T12:57:34.676Z,10.00
2023-02-13T13:00:01.518Z,9.90
2023-02-13T13:02:46.465Z,10.00
2023-02-13T13:05:31.021Z,10.00
2023-02-13T13:07:57.874Z,8.30
2023-02-13T13:10:33.795Z,10.10
2023-02-13T13:13:29.994Z,10.20
2023-02-13T13:16:02.913Z,10.10
2023-02-13T13:18:31.322Z,10.20
2023-02-13T13:21:10.382Z,10.20
2023-02-13T13:27:33.644Z,10.10
2023-02-13T13:30:13.680Z,10.20
2023-02-13T13:32:41.662Z,10.30
2023-02-13T13:35:15.401Z,10.40
2023-02-13T13:38:06.659Z,10.30
2023-02-13T13:40:33.505Z,10.50
2023-02-13T13:43:05.473Z,10.40
2023-02-13T13:45:52.274Z,10.30
2023-02-13T13:48:40.418Z,10.10
2023-02-13T13:51:07.900Z,10.00
2023-02-13T13:53:36.154Z,9.80
2023-02-13T13:56:05.052Z,9.70
2023-02-13T13:58:31.902Z,10.80
2023-02-13T14:01:18.641Z,9.60
2023-02-13T14:03:45.464Z,9.50
2023-02-13T14:06:22.179Z,9.00
2023-02-13T14:08:49.386Z,8.80
2023-02-13T14:11:30.466Z,8.70
2023-02-13T14:13:57.560Z,8.40
2023-02-13T14:16:44.152Z,8.30
2023-02-13T14:19:29.358Z,8.20
2023-02-13T14:22:16.069Z,8.10
2023-02-13T14:24:44.285Z,7.90
2023-02-13T14:27:20.578Z,7.90
2023-02-13T14:29:48.131Z,8.40
2023-02-13T14:32:17.677Z,7.80
2023-02-13T14:34:51.278Z,10.20
2023-02-13T14:37:23.063Z,7.80
2023-02-13T14:40:08.906Z,7.70
2023-02-13T14:42:36.087Z,7.70
2023-02-13T14:45:04.435Z,10.40
2023-02-13T14:47:37.481Z,7.90
2023-02-13T14:50:04.974Z,7.90
2023-02-13T14:52:35.847Z,7.80
2023-02-13T14:55:08.691Z,7.80
2023-02-13T14:57:40.615Z,7.80
2023-02-13T15:00:09.595Z,7.50
2023-02-13T15:02:45.094Z,7.40
2023-02-13T15:05:14.609Z,7.10
2023-02-13T15:11:36.380Z,7.10
2023-02-13T15:14:20.284Z,7.10
2023-02-13T15:16:50.170Z,6.90
2023-02-13T15:19:18.121Z,9.40
2023-02-13T15:21:56.283Z,7.10
2023-02-13T15:24:23.749Z,6.70
2023-02-13T15:26:52.332Z,6.80
2023-02-13T15:29:29.225Z,8.90
2023-02-13T15:31:56.897Z,6.60
2023-02-13T15:34:25.934Z,9.00
2023-02-13T15:36:53.334Z,6.40
2023-02-13T15:39:23.200Z,7.00
2023-02-13T15:41:51.966Z,5.50
2023-02-13T15:44:48.740Z,8.50
2023-02-13T15:47:23.592Z,5.80
2023-02-13T15:49:50.638Z,5.70
2023-02-13T15:52:47.526Z,7.80
2023-02-13T15:55:22.433Z,5.50
2023-02-13T15:57:50.035Z,5.40
2023-02-13T16:00:21.335Z,7.00
2023-02-13T16:02:48.767Z,5.20
2023-02-13T16:09:39.282Z,4.70
2023-02-13T16:12:26.460Z,4.60
2023-02-13T16:14:55.004Z,4.60
2023-02-13T16:17:32.786Z,5.40
2023-02-13T16:20:02.115Z,4.10
2023-02-13T16:23:03.454Z,6.30
2023-02-13T16:26:15.940Z,4.10
2023-02-13T16:28:45.905Z,4.00
2023-02-13T16:31:16.516Z,3.90
2023-02-13T16:33:43.924Z,6.40
2023-02-13T16:36:10.806Z,3.90
2023-02-13T16:38:39.234Z,6.50
2023-02-13T16:41:06.062Z,3.50
2023-02-13T16:43:40.328Z,6.30
2023-02-13T16:46:20.846Z,3.40
2023-02-13T16:48:59.409Z,3.10
2023-02-13T16:51:31.867Z,3.00
2023-02-13T16:54:11.079Z,4.90
2023-02-13T16:56:41.072Z,2.90
2023-02-13T16:59:19.181Z,2.70
2023-02-13T17:01:46.033Z,0.10
2023-02-13T17:04:23.536Z,4.80
2023-02-13T17:07:10.365Z,2.60
2023-02-13T17:09:37.234Z,2.30
2023-02-13T17:12:04.691Z,3.80
2023-02-13T17:14:31.586Z,1.90
2023-02-13T17:16:58.748Z,5.00
2023-02-13T17:19:25.612Z,4.70
2023-02-13T17:21:54.728Z,4.50
2023-02-13T17:24:21.664Z,1.40
2023-02-13T17:26:48.497Z,4.30
2023-02-13T17:29:15.338Z,1.40
2023-02-13T17:31:42.322Z,4.00
2023-02-13T17:34:11.016Z,1.50
2023-02-13T17:36:42.137Z,3.20
2023-02-13T17:39:09.016Z,1.30
2023-02-13T17:41:38.350Z,4.20
2023-02-13T17:44:05.383Z,1.30
2023-02-13T17:46:32.230Z,3.40
2023-02-13T17:52:59.001Z,1.20
2023-02-13T17:55:27.396Z,2.30
2023-02-13T17:57:56.649Z,1.30
2023-02-13T18:00:24.176Z,4.00
2023-02-13T18:02:51.408Z,1.30
2023-02-13T18:05:18.778Z,2.80
2023-02-13T18:07:46.056Z,1.10
2023-02-13T18:10:14.814Z,4.20
2023-02-13T18:12:42.315Z,1.10
2023-02-13T18:15:10.683Z,1.10
2023-02-13T18:17:38.120Z,1.30
2023-02-13T18:20:06.969Z,3.90
2023-02-13T18:22:34.124Z,1.50
2023-02-13T18:25:42.347Z,3.00
2023-02-13T18:28:09.268Z,1.20
2023-02-13T18:30:36.249Z,1.70
2023-02-13T18:33:05.144Z,2.40
2023-02-13T18:35:33.449Z,1.10
2023-02-13T18:38:00.312Z,3.50
2023-02-13T18:44:28.754Z,0.80
2023-02-13T18:46:56.348Z,1.20
2023-02-13T18:49:23.343Z,0.90
2023-02-13T18:51:50.423Z,3.80
2023-02-13T18:54:18.172Z,0.70
2023-02-13T18:56:45.978Z,3.30
2023-02-13T18:59:13.402Z,0.70
2023-02-13T19:01:40.398Z,0.60
2023-02-13T19:04:07.329Z,0.90
2023-02-13T19:06:34.211Z,2.50
2023-02-13T19:09:01.145Z,0.40
2023-02-13T19:11:28.037Z,3.00
2023-02-13T19:13:56.004Z,0.50
2023-02-13T19:16:23.089Z,0.50
2023-02-13T19:18:54.378Z,0.40
2023-02-13T19:21:22.429Z,2.90
2023-02-13T19:23:50.163Z,1.70
2023-02-13T19:26:19.224Z,2.00
2023-02-13T19:28:46.233Z,0.90
2023-02-13T19:31:20.596Z,2.10
2023-02-13T19:33:48.102Z,0.20
2023-02-13T19:36:18.180Z,2.30
2023-02-13T19:38:47.099Z,0.70
2023-02-13T19:41:17.621Z,2.30
2023-02-13T19:43:51.378Z,0.50
2023-02-13T19:46:19.577Z,0.20
2023-02-13T19:48:49.598Z,0.50
2023-02-13T19:51:17.942Z,3.00
2023-02-13T19:53:44.913Z,2.80
2023-02-13T19:56:12.858Z,0.50
2023-02-13T19:58:40.356Z,0.30
2023-02-13T20:01:08.278Z,0.80
2023-02-13T20:07:16.801Z,0.30
2023-02-13T20:09:43.724Z,0.40
2023-02-13T20:12:10.584Z,0.60
2023-02-13T20:14:37.514Z,1.60
2023-02-13T20:17:05.020Z,0.40
2023-02-13T20:19:31.979Z,3.20
2023-02-13T20:21:58.957Z,0.40
2023-02-13T20:24:25.937Z,2.60
2023-02-13T20:26:53.021Z,0.40
2023-02-13T20:29:19.906Z,0.40
2023-02-13T20:31:47.004Z,1.10
2023-02-13T20:34:14.086Z,0.30
2023-02-13T20:36:40.979Z,0.40
2023-02-13T20:43:08.608Z,0.30
2023-02-13T20:45:35.613Z,0.50
2023-02-13T20:48:02.498Z,1.40
2023-02-13T20:50:29.410Z,0.40
2023-02-13T20:52:56.248Z,2.80
2023-02-13T20:55:23.173Z,0.40
2023-02-13T20:57:53.927Z,2.50
2023-02-13T21:00:21.260Z,0.30
2023-02-13T21:02:48.181Z,0.20
2023-02-13T21:05:15.183Z,1.30
2023-02-13T21:11:36.908Z,0.20
2023-02-13T21:14:04.220Z,0.40
2023-02-13T21:16:33.966Z,1.40
2023-02-13T21:19:02.193Z,0.40
2023-02-13T21:21:31.718Z,2.20
2023-02-13T21:24:05.783Z,0.90
2023-02-13T21:26:33.922Z,0.30
2023-02-13T21:29:00.913Z,0.80
2023-02-13T21:31:30.590Z,2.50
2023-02-13T21:33:59.189Z,0.30
2023-02-13T21:36:27.098Z,1.50
2023-02-13T21:38:53.946Z,1.10
2023-02-13T21:41:21.240Z,2.20
2023-02-13T21:43:49.049Z,0.30
2023-02-13T21:46:26.876Z,1.30
2023-02-13T21:48:55.563Z,0.30
2023-02-13T21:51:23.068Z,1.90
2023-02-13T21:53:50.427Z,0.80
2023-02-13T21:56:18.977Z,2.10
2023-02-13T21:58:46.410Z,0.30
2023-02-13T22:01:25.955Z,2.80
2023-02-13T22:04:00.494Z,-2.50
2023-02-13T22:06:29.340Z,0.10
2023-02-13T22:09:00.401Z,0.10
2023-02-13T22:11:27.776Z,0.10
2023-02-13T22:13:56.190Z,0.40
2023-02-13T22:16:23.491Z,0.60
2023-02-13T22:18:50.760Z,0.70
2023-02-13T22:21:19.244Z,0.60
2023-02-13T22:23:46.663Z,2.20
2023-02-13T22:26:17.874Z,0.20
2023-02-13T22:28:44.842Z,0.10
2023-02-13T22:31:12.507Z,0.90
2023-02-13T22:33:39.384Z,2.30
2023-02-13T22:36:06.551Z,1.20
2023-02-13T22:38:34.274Z,0.00
2023-02-13T22:41:17.711Z,1.10
2023-02-13T22:43:44.601Z,-0.10
2023-02-13T22:46:11.476Z,0.80
2023-02-13T22:48:39.074Z,2.20
2023-02-13T22:51:06.982Z,0.20
2023-02-13T22:53:33.941Z,0.00
2023-02-13T22:56:01.662Z,0.70
2023-02-13T22:58:28.561Z,2.00
2023-02-13T23:00:55.520Z,1.00
2023-02-13T23:03:22.465Z,2.20
2023-02-13T23:05:49.466Z,0.50
2023-02-13T23:08:16.444Z,1.50
2023-02-13T23:10:43.327Z,0.80
2023-02-13T23:13:10.714Z,1.60
2023-02-13T23:15:38.200Z,0.40
2023-02-13T23:18:14.354Z,1.80
2023-02-13T23:20:42.258Z,-0.20
2023-02-13T23:23:09.707Z,0.80
2023-02-13T23:25:37.051Z,1.00
2023-02-13T23:28:04.252Z,0.20
2023-02-13T23:30:31.402Z,-0.50
2023-02-13T23:32:59.180Z,0.30
2023-02-13T23:35:57.046Z,1.60
2023-02-13T23:38:23.990Z,-0.40
2023-02-13T23:40:50.884Z,0.50
2023-02-13T23:43:17.696Z,1.00
2023-02-13T23:45:44.631Z,1.90
2023-02-13T23:48:12.871Z,0.70
2023-02-13T23:50:40.429Z,1.20
2023-02-13T23:53:07.332Z,0.90
2023-02-13T23:55:34.263Z,1.20
2023-02-13T23:58:01.103Z,0.70
